createdAt,value
2022-08-18T00:01:54.783Z,101247.34
2022-08-18T00:04:34.947Z,101246.19
2022-08-18T00:07:04.715Z,101241.34
2022-08-18T00:09:34.683Z,101241.06
2022-08-18T00:12:05.760Z,101242.59
2022-08-18T00:14:34.108Z,101241.63
2022-08-18T00:17:01.653Z,101240.50
2022-08-18T00:19:46.716Z,101235.66
2022-08-18T00:22:18.639Z,101233.50
2022-08-18T00:24:49.498Z,101239.56
2022-08-18T00:27:22.962Z,101230.53
2022-08-18T00:29:53.045Z,101220.91
2022-08-18T00:32:27.308Z,101219.50
2022-08-18T00:34:55.468Z,101216.94
2022-08-18T00:37:24.411Z,101209.63
2022-08-18T00:39:53.650Z,101204.66
2022-08-18T00:42:30.377Z,101214.75
2022-08-18T00:45:04.316Z,101208.38
2022-08-18T00:47:41.576Z,101204.53
2022-08-18T00:50:16.468Z,101192.75
2022-08-18T00:52:58.934Z,101194.78
2022-08-18T00:55:29.434Z,101192.38
2022-08-18T00:58:06.674Z,101186.28
2022-08-18T01:00:34.471Z,101192.69
2022-08-18T01:03:07.274Z,101188.13
2022-08-18T01:05:47.749Z,101181.75
2022-08-18T01:08:17.265Z,101186.28
2022-08-18T01:10:57.376Z,101190.00
2022-08-18T01:13:29.640Z,101177.22
2022-08-18T01:15:57.884Z,101180.59
2022-08-18T01:18:44.019Z,101177.91
2022-08-18T01:21:45.345Z,101169.84
2022-08-18T01:24:14.751Z,101172.00
2022-08-18T01:26:49.902Z,101166.06
2022-08-18T01:29:19.758Z,101168.06
2022-08-18T01:31:56.265Z,101168.22
2022-08-18T01:34:28.510Z,101168.06
2022-08-18T01:36:56.862Z,101160.81
2022-08-18T01:40:59.601Z,101154.19
2022-08-18T01:42:15.026Z,101156.22
2022-08-18T01:44:44.467Z,101154.81
2022-08-18T01:47:12.812Z,101149.56
2022-08-18T01:49:43.442Z,101139.13
2022-08-18T01:52:17.998Z,101138.13
2022-08-18T01:54:46.295Z,101127.53
2022-08-18T01:57:16.935Z,101126.50
2022-08-18T01:59:44.640Z,101128.91
2022-08-18T02:02:18.132Z,101131.47
2022-08-18T02:04:47.525Z,101130.44
2022-08-18T02:07:15.248Z,101123.94
2022-08-18T02:09:44.218Z,101130.69
2022-08-18T02:12:13.602Z,101118.63
2022-08-18T02:14:41.438Z,101113.09
2022-08-18T02:17:11.245Z,101115.78
2022-08-18T02:19:42.678Z,101109.41
2022-08-18T02:22:13.288Z,101104.03
2022-08-18T02:24:41.509Z,101104.72
2022-08-18T02:27:10.077Z,101098.03
2022-08-18T02:29:38.749Z,101104.97
2022-08-18T02:32:06.961Z,101098.56
2022-08-18T02:34:35.621Z,101101.97
2022-08-18T02:37:04.569Z,101095.88
2022-08-18T02:39:35.773Z,101079.72
2022-08-18T02:42:06.082Z,101085.13
2022-08-18T02:44:33.976Z,101075.38
2022-08-18T02:47:02.060Z,101082.44
2022-08-18T02:49:29.704Z,101061.91
2022-08-18T02:51:57.664Z,101073.34
2022-08-18T02:54:26.268Z,101064.44
2022-08-18T02:56:54.442Z,101050.97
2022-08-18T02:59:24.709Z,101047.44
2022-08-18T03:01:55.279Z,101045.75
2022-08-18T03:04:30.538Z,101043.91
2022-08-18T03:07:01.669Z,101050.97
2022-08-18T03:09:31.631Z,101046.59
2022-08-18T03:11:59.875Z,101053.00
2022-08-18T03:14:28.705Z,101048.75
2022-08-18T03:16:56.812Z,101042.00
2022-08-18T03:19:26.396Z,101041.31
2022-08-18T03:21:58.045Z,101027.00
2022-08-18T03:24:29.185Z,101025.31
2022-08-18T03:26:57.433Z,101021.22
2022-08-18T03:29:31.353Z,101021.53
2022-08-18T03:32:01.940Z,101022.53
2022-08-18T03:34:30.290Z,101018.84
2022-08-18T03:36:58.304Z,101006.41
2022-08-18T03:39:28.098Z,101013.63
2022-08-18T03:42:01.040Z,101009.25
2022-08-18T03:44:33.453Z,101010.09
2022-08-18T03:47:03.898Z,101008.25
2022-08-18T03:49:34.070Z,100999.34
2022-08-18T03:52:03.154Z,101000.31
2022-08-18T03:54:32.490Z,100993.13
2022-08-18T03:57:00.768Z,100989.41
2022-08-18T03:59:31.888Z,100980.66
2022-08-18T04:02:02.535Z,100979.09
2022-08-18T04:04:30.421Z,100974.75
2022-08-18T04:07:01.258Z,100963.13
2022-08-18T04:09:30.927Z,100968.34
2022-08-18T04:12:04.281Z,100959.13
2022-08-18T04:14:34.531Z,100957.97
2022-08-18T04:17:02.068Z,100953.31
2022-08-18T04:19:31.061Z,100957.50
2022-08-18T04:21:58.880Z,100960.06
2022-08-18T04:24:31.200Z,100952.69
2022-08-18T04:27:02.651Z,100947.84
2022-08-18T04:29:30.797Z,100945.81
2022-08-18T04:32:02.874Z,100956.25
2022-08-18T04:34:31.120Z,100953.44
2022-08-18T04:36:58.995Z,100950.56
2022-08-18T04:39:26.865Z,100948.72
2022-08-18T04:41:54.668Z,100951.41
2022-08-18T04:44:22.349Z,100946.88
2022-08-18T04:46:52.432Z,100942.19
2022-08-18T04:49:22.503Z,100929.47
2022-08-18T04:55:54.235Z,100940.06
2022-08-18T04:58:24.648Z,100933.69
2022-08-18T05:05:23.695Z,100940.56
2022-08-18T05:07:51.449Z,100935.72
2022-08-18T05:10:19.098Z,100935.41
2022-08-18T05:49:27.523Z,100874.47
2022-08-18T05:52:08.442Z,100877.84
2022-08-18T05:55:01.916Z,100878.53
2022-08-18T05:57:34.605Z,100873.81
2022-08-18T06:00:05.809Z,100876.34
2022-08-18T06:02:48.319Z,100877.22
2022-08-18T06:05:28.022Z,100876.34
2022-08-18T06:08:15.096Z,100875.34
2022-08-18T06:10:47.558Z,100876.19
2022-08-18T06:13:15.528Z,100870.31
2022-08-18T06:15:58.859Z,100868.31
2022-08-18T06:18:51.680Z,100850.81
2022-08-18T06:21:25.660Z,100864.66
2022-08-18T06:24:19.477Z,100868.88
2022-08-18T06:27:26.120Z,100855.91
2022-08-18T06:30:12.456Z,100855.03
2022-08-18T06:33:02.004Z,100851.03
2022-08-18T06:35:36.610Z,100852.03
2022-08-18T06:38:45.684Z,100843.28
2022-08-18T06:41:51.634Z,100833.00
2022-08-18T06:44:29.191Z,100820.06
2022-08-18T06:47:04.407Z,100824.94
2022-08-18T06:49:48.561Z,100816.69
2022-08-18T06:52:51.611Z,100811.13
2022-08-18T06:55:38.713Z,100810.63
2022-08-18T06:58:30.119Z,100798.00
2022-08-18T07:01:05.978Z,100803.88
2022-08-18T07:03:36.608Z,100794.28
2022-08-18T07:06:06.040Z,100802.88
2022-08-18T07:08:36.854Z,100807.09
2022-08-18T07:11:24.345Z,100799.72
2022-08-18T07:14:15.541Z,100807.28
2022-08-18T07:16:58.460Z,100797.19
2022-08-18T07:19:30.089Z,100800.22
2022-08-18T07:22:11.202Z,100799.06
2022-08-18T07:24:46.164Z,100805.28
2022-08-18T07:27:17.686Z,100801.59
2022-08-18T07:30:07.498Z,100800.91
2022-08-18T07:32:41.932Z,100803.09
2022-08-18T07:35:12.235Z,100796.03
2022-08-18T07:37:42.600Z,100809.19
2022-08-18T07:40:19.811Z,100796.19
2022-08-18T07:43:30.599Z,100793.50
2022-08-18T07:46:12.248Z,100799.41
2022-08-18T07:48:40.677Z,100795.19
2022-08-18T07:51:23.793Z,100800.75
2022-08-18T07:54:13.253Z,100793.53
2022-08-18T07:57:24.511Z,100793.03
2022-08-18T07:59:55.111Z,100794.84
2022-08-18T08:02:35.548Z,100794.31
2022-08-18T08:05:15.694Z,100785.06
2022-08-18T08:07:57.504Z,100792.63
2022-08-18T08:10:31.076Z,100793.47
2022-08-18T08:13:13.703Z,100791.44
2022-08-18T08:15:47.241Z,100790.09
2022-08-18T08:18:33.561Z,100785.88
2022-08-18T08:21:08.988Z,100786.19
2022-08-18T08:23:55.793Z,100777.94
2022-08-18T08:26:51.697Z,100778.44
2022-08-18T08:29:49.104Z,100775.94
2022-08-18T08:32:28.991Z,100770.38
2022-08-18T08:35:49.668Z,100768.00
2022-08-18T08:38:39.307Z,100768.84
2022-08-18T08:41:10.170Z,100762.59
2022-08-18T08:43:42.909Z,100761.78
2022-08-18T08:46:16.115Z,100764.97
2022-08-18T08:48:50.462Z,100758.09
2022-08-18T08:51:33.717Z,100755.91
2022-08-18T08:54:12.404Z,100753.19
2022-08-18T08:56:45.400Z,100754.72
2022-08-18T08:59:21.849Z,100747.28
2022-08-18T09:01:49.485Z,100748.16
2022-08-18T09:04:53.276Z,100743.59
2022-08-18T09:07:54.538Z,100738.56
2022-08-18T09:10:44.415Z,100739.56
2022-08-18T09:13:30.351Z,100735.03
2022-08-18T09:16:15.760Z,100726.59
2022-08-18T09:18:46.020Z,100729.44
2022-08-18T09:21:38.629Z,100721.34
2022-08-18T09:24:30.084Z,100718.28
2022-08-18T09:27:03.776Z,100719.78
2022-08-18T09:29:49.848Z,100716.50
2022-08-18T09:32:22.794Z,100708.31
2022-08-18T09:35:15.095Z,100716.63
2022-08-18T09:37:46.226Z,100712.75
2022-08-18T09:43:39.580Z,100705.44
2022-08-18T09:46:12.383Z,100707.22
2022-08-18T09:48:43.102Z,100698.06
2022-08-18T09:51:23.618Z,100694.00
2022-08-18T09:53:54.200Z,100701.66
2022-08-18T09:56:54.393Z,100691.03
2022-08-18T09:59:34.510Z,100692.53
2022-08-18T10:05:20.093Z,100684.34
2022-08-18T10:07:57.960Z,100679.84
2022-08-18T10:11:00.399Z,100673.56
2022-08-18T10:13:49.138Z,100669.66
2022-08-18T10:17:15.846Z,100670.38
2022-08-18T10:19:52.414Z,100655.09
2022-08-18T10:22:43.664Z,100653.97
2022-08-18T10:25:22.494Z,100658.38
2022-08-18T10:27:55.187Z,100648.53
2022-08-18T10:30:36.545Z,100645.81
2022-08-18T10:33:59.966Z,100641.47
2022-08-18T10:36:49.918Z,100633.91
2022-08-18T10:39:30.981Z,100629.88
2022-08-18T10:42:28.557Z,100636.94
2022-08-18T10:45:11.481Z,100638.88
2022-08-18T10:47:39.635Z,100644.59
2022-08-18T10:50:18.762Z,100636.78
2022-08-18T10:53:32.926Z,100629.72
2022-08-18T10:55:53.040Z,100635.56
2022-08-18T10:58:45.149Z,100628.09
2022-08-18T11:01:12.810Z,100634.81
2022-08-18T11:04:13.714Z,100627.06
2022-08-18T11:06:56.835Z,100622.69
2022-08-18T11:09:29.030Z,100611.63
2022-08-18T11:12:01.509Z,100622.09
2022-08-18T11:14:39.525Z,100614.69
2022-08-18T11:17:31.972Z,100611.16
2022-08-18T11:20:01.771Z,100606.88
2022-08-18T11:25:35.085Z,100602.50
2022-08-18T11:28:14.366Z,100610.28
2022-08-18T11:30:50.373Z,100612.03
2022-08-18T11:33:23.264Z,100617.69
2022-08-18T11:35:58.246Z,100611.66
2022-08-18T11:38:29.423Z,100614.19
2022-08-18T11:41:20.773Z,100615.19
2022-08-18T11:43:50.775Z,100610.22
2022-08-18T11:46:29.649Z,100618.19
2022-08-18T11:49:13.873Z,100617.84
2022-08-18T11:52:03.616Z,100613.09
2022-08-18T11:54:38.383Z,100619.88
2022-08-18T11:57:39.022Z,100623.88
2022-08-18T12:00:42.983Z,100621.69
2022-08-18T12:03:28.508Z,100617.88
2022-08-18T12:06:19.470Z,100614.19
2022-08-18T12:09:00.952Z,100621.25
2022-08-18T12:11:41.354Z,100622.09
2022-08-18T12:14:31.799Z,100611.03
2022-08-18T12:17:02.339Z,100614.69
2022-08-18T12:22:23.441Z,100611.53
2022-08-18T12:24:51.960Z,100616.75
2022-08-18T12:27:23.693Z,100602.44
2022-08-18T12:29:57.529Z,100596.25
2022-08-18T12:32:48.906Z,100597.19
2022-08-18T12:35:14.825Z,100592.78
2022-08-18T12:38:14.413Z,100592.13
2022-08-18T12:40:33.065Z,100582.94
2022-08-18T12:43:00.749Z,100580.81
2022-08-18T12:45:31.235Z,100573.84
2022-08-18T12:48:04.292Z,100573.91
2022-08-18T12:50:36.142Z,100570.53
2022-08-18T12:53:07.132Z,100562.22
2022-08-18T12:55:44.128Z,100564.81
2022-08-18T12:58:13.308Z,100556.06
2022-08-18T13:00:41.332Z,100553.91
2022-08-18T13:03:09.060Z,100554.66
2022-08-18T13:05:37.522Z,100551.28
2022-08-18T13:08:12.552Z,100545.31
2022-08-18T13:10:58.100Z,100548.22
2022-08-18T13:13:29.291Z,100549.03
2022-08-18T13:16:01.303Z,100547.38
2022-08-18T13:18:31.594Z,100549.84
2022-08-18T13:21:00.299Z,100545.59
2022-08-18T13:23:28.526Z,100548.63
2022-08-18T13:25:59.499Z,100558.69
2022-08-18T13:28:33.461Z,100557.44
2022-08-18T13:31:05.312Z,100553.59
2022-08-18T13:33:55.911Z,100555.56
2022-08-18T13:36:22.396Z,100548.56
2022-08-18T13:38:54.786Z,100539.28
2022-08-18T13:43:52.471Z,100541.75
2022-08-18T13:46:30.016Z,100537.47
2022-08-18T13:49:02.336Z,100534.91
2022-08-18T13:51:31.918Z,100523.81
2022-08-18T13:54:29.595Z,100514.75
2022-08-18T13:56:51.667Z,100513.59
2022-08-18T13:59:22.587Z,100524.53
2022-08-18T14:01:53.149Z,100536.78
2022-08-18T14:04:22.805Z,100535.16
2022-08-18T14:06:57.372Z,100537.13
2022-08-18T14:09:36.156Z,100531.00
2022-08-18T14:12:16.091Z,100520.78
2022-08-18T14:14:53.614Z,100513.28
2022-08-18T14:17:23.100Z,100519.34
2022-08-18T14:20:15.432Z,100510.31
2022-08-18T14:23:23.872Z,100510.06
2022-08-18T14:26:13.948Z,100497.41
2022-08-18T14:28:41.639Z,100491.88
2022-08-18T14:31:11.847Z,100496.22
2022-08-18T14:33:50.986Z,100488.91
2022-08-18T14:36:20.651Z,100485.44
2022-08-18T14:38:59.551Z,100478.31
2022-08-18T14:41:28.030Z,100479.44
2022-08-18T14:44:12.082Z,100482.97
2022-08-18T14:46:54.162Z,100487.88
2022-08-18T14:49:28.732Z,100485.59
2022-08-18T14:52:02.060Z,100486.44
2022-08-18T14:54:31.260Z,100479.63
2022-08-18T14:57:01.887Z,100483.69
2022-08-18T14:59:34.561Z,100478.84
2022-08-18T15:02:13.187Z,100473.00
2022-08-18T15:04:56.449Z,100470.13
2022-08-18T15:07:26.429Z,100467.91
2022-08-18T15:10:15.547Z,100458.75
2022-08-18T15:12:42.582Z,100464.44
2022-08-18T15:15:17.765Z,100454.25
2022-08-18T15:17:50.160Z,100448.41
2022-08-18T15:20:29.046Z,100450.69
2022-08-18T15:23:28.114Z,100438.13
2022-08-18T15:25:56.920Z,100435.41
2022-08-18T15:28:28.020Z,100423.53
2022-08-18T15:33:43.243Z,100426.00
2022-08-18T15:36:10.799Z,100413.25
2022-08-18T15:38:43.994Z,100412.84
2022-08-18T15:41:28.873Z,100406.78
2022-08-18T15:43:59.050Z,100406.56
2022-08-18T15:46:27.231Z,100407.16
2022-08-18T15:48:55.747Z,100401.72
2022-08-18T15:51:23.288Z,100408.59
2022-08-18T15:53:51.152Z,100414.34
2022-08-18T15:56:21.557Z,100400.91
2022-08-18T15:58:50.595Z,100417.41
2022-08-18T16:01:30.245Z,100404.75
2022-08-18T16:04:01.356Z,100404.09
2022-08-18T16:06:32.475Z,100400.91
2022-08-18T16:09:02.205Z,100392.25
2022-08-18T16:11:30.339Z,100384.09
2022-08-18T16:14:01.588Z,100390.13
2022-08-18T16:16:36.030Z,100378.84
2022-08-18T16:19:07.011Z,100384.69
2022-08-18T16:21:40.160Z,100375.53
2022-08-18T16:24:08.555Z,100369.94
2022-08-18T16:26:36.582Z,100369.53
2022-08-18T16:29:05.926Z,100368.31
2022-08-18T16:31:33.904Z,100372.28
2022-08-18T16:34:01.537Z,100366.66
2022-08-18T16:36:29.132Z,100361.06
2022-08-18T16:38:58.392Z,100365.25
2022-08-18T16:41:27.030Z,100359.59
2022-08-18T16:43:56.348Z,100358.34
2022-08-18T16:46:27.462Z,100351.00
2022-08-18T16:48:57.142Z,100346.44
2022-08-18T16:51:28.290Z,100341.63
2022-08-18T16:53:55.920Z,100338.69
2022-08-18T16:56:26.606Z,100330.97
2022-08-18T16:59:13.387Z,100330.75
2022-08-18T17:02:00.143Z,100330.28
2022-08-18T17:04:33.543Z,100345.63
2022-08-18T17:07:05.593Z,100326.59
2022-08-18T17:09:35.020Z,100315.13
2022-08-18T17:12:02.841Z,100313.22
2022-08-18T17:14:32.136Z,100305.88
2022-08-18T17:17:00.632Z,100307.09
2022-08-18T17:19:31.772Z,100293.19
2022-08-18T17:22:00.752Z,100284.66
2022-08-18T17:24:32.028Z,100280.75
2022-08-18T17:27:25.955Z,100284.06
2022-08-18T17:30:12.419Z,100288.00
2022-08-18T17:33:00.217Z,100276.78
2022-08-18T17:35:35.066Z,100266.13
2022-08-18T17:38:27.030Z,100266.50
2022-08-18T17:40:57.335Z,100253.19
2022-08-18T17:43:29.988Z,100245.69
2022-08-18T17:46:17.841Z,100241.31
2022-08-18T17:48:54.589Z,100235.25
2022-08-18T17:51:43.459Z,100234.00
2022-08-18T17:54:23.521Z,100219.34
2022-08-18T17:57:00.230Z,100221.56
2022-08-18T17:59:45.891Z,100211.53
2022-08-18T18:02:30.011Z,100208.97
2022-08-18T18:05:00.383Z,100204.94
2022-08-18T18:07:45.023Z,100206.34
2022-08-18T18:10:23.876Z,100217.75
2022-08-18T18:13:10.385Z,100225.19
2022-08-18T18:15:41.185Z,100212.06
2022-08-18T18:18:45.447Z,100192.44
2022-08-18T18:21:16.219Z,100314.00
2022-08-18T18:23:54.799Z,100308.97
2022-08-18T18:26:45.855Z,100308.44
2022-08-18T18:29:33.343Z,100310.56
2022-08-18T18:32:05.791Z,100328.13
2022-08-18T18:34:39.659Z,100322.41
2022-08-18T18:37:29.345Z,100324.72
2022-08-18T18:40:00.627Z,100338.28
2022-08-18T18:42:31.512Z,100338.03
2022-08-18T18:45:02.373Z,100351.38
2022-08-18T18:48:10.976Z,100362.38
2022-08-18T18:51:11.770Z,100361.88
2022-08-18T18:53:50.021Z,100373.66
2022-08-18T18:56:23.243Z,100373.00
2022-08-18T18:59:26.691Z,100385.47
2022-08-18T19:02:15.712Z,100384.63
2022-08-18T19:05:35.674Z,100391.19
2022-08-18T19:08:28.437Z,100409.00
2022-08-18T19:11:07.399Z,100419.78
2022-08-18T19:13:45.329Z,100421.78
2022-08-18T19:16:45.610Z,100422.50
2022-08-18T19:19:36.869Z,100424.38
2022-08-18T19:22:29.311Z,100423.53
2022-08-18T19:25:04.233Z,100432.97
2022-08-18T19:27:56.307Z,100446.94
2022-08-18T19:30:24.016Z,100448.09
2022-08-18T19:32:56.075Z,100450.28
2022-08-18T19:35:46.679Z,100448.06
2022-08-18T19:38:25.747Z,100452.63
2022-08-18T19:40:58.724Z,100463.88
2022-08-18T19:43:36.862Z,100457.66
2022-08-18T19:46:25.350Z,100463.38
2022-08-18T19:49:12.193Z,100464.22
2022-08-18T19:51:42.373Z,100471.44
2022-08-18T19:54:58.323Z,100480.00
2022-08-18T19:58:01.439Z,100473.25
2022-08-18T20:01:20.920Z,100472.75
2022-08-18T20:04:16.736Z,100477.09
2022-08-18T20:07:01.335Z,100483.28
2022-08-18T20:09:31.491Z,100485.44
2022-08-18T20:12:40.337Z,100480.06
2022-08-18T20:15:17.652Z,100487.75
2022-08-18T20:17:54.073Z,100488.09
2022-08-18T20:20:23.622Z,100482.19
2022-08-18T20:22:57.178Z,100490.75
2022-08-18T20:25:25.095Z,100494.75
2022-08-18T20:27:58.721Z,100493.38
2022-08-18T20:30:48.220Z,100494.69
2022-08-18T20:33:29.903Z,100489.47
2022-08-18T20:36:19.441Z,100497.84
2022-08-18T20:38:50.110Z,100495.66
2022-08-18T20:41:23.438Z,100501.34
2022-08-18T20:44:29.929Z,100501.81
2022-08-18T20:47:04.343Z,100507.34
2022-08-18T20:49:51.213Z,100508.66
2022-08-18T20:52:40.947Z,100506.28
2022-08-18T20:55:59.624Z,100502.41
2022-08-18T20:58:34.321Z,100503.72
2022-08-18T21:01:02.390Z,100500.34
2022-08-18T21:03:40.011Z,100511.06
2022-08-18T21:06:08.483Z,100514.25
2022-08-18T21:08:37.694Z,100508.19
2022-08-18T21:11:31.824Z,100504.81
2022-08-18T21:14:03.926Z,100504.81
2022-08-18T21:16:39.275Z,100502.66
2022-08-18T21:19:18.008Z,100504.56
2022-08-18T21:21:51.526Z,100508.81
2022-08-18T21:24:33.406Z,100513.53
2022-08-18T21:27:26.873Z,100510.03
2022-08-18T21:29:58.072Z,100508.19
2022-08-18T21:32:35.795Z,100514.69
2022-08-18T21:35:29.972Z,100504.31
2022-08-18T21:38:11.150Z,100515.34
2022-08-18T21:40:47.136Z,100516.50
2022-08-18T21:43:48.867Z,100510.94
2022-08-18T21:46:27.386Z,100521.47
2022-08-18T21:48:57.932Z,100513.19
2022-08-18T21:51:28.873Z,100512.66
2022-08-18T21:53:58.620Z,100514.97
2022-08-18T21:56:30.995Z,100508.91
2022-08-18T21:59:17.047Z,100503.31
2022-08-18T22:01:53.984Z,100499.97
2022-08-18T22:04:26.628Z,100505.47
2022-08-18T22:06:58.301Z,100504.63
2022-08-18T22:09:54.274Z,100504.63
2022-08-18T22:12:48.540Z,100511.84
2022-08-18T22:15:22.234Z,100515.38
2022-08-18T22:18:20.173Z,100524.25
2022-08-18T22:20:54.226Z,100518.56
2022-08-18T22:23:45.427Z,100518.28
2022-08-18T22:26:22.122Z,100526.00
2022-08-18T22:29:14.337Z,100512.28
2022-08-18T22:31:49.882Z,100512.09
2022-08-18T22:34:27.819Z,100520.03
2022-08-18T22:37:03.872Z,100515.34
2022-08-18T22:39:35.599Z,100514.16
2022-08-18T22:42:04.849Z,100515.38
2022-08-18T22:44:32.538Z,100518.47
2022-08-18T22:47:00.075Z,100513.44
2022-08-18T22:49:27.700Z,100517.66
2022-08-18T22:51:55.849Z,100511.97
2022-08-18T22:54:24.335Z,100503.75
2022-08-18T22:56:55.172Z,100516.72
2022-08-18T22:59:26.731Z,100509.88
2022-08-18T23:01:57.271Z,100516.59
2022-08-18T23:04:25.785Z,100519.81
2022-08-18T23:06:54.602Z,100520.34
2022-08-18T23:09:26.123Z,100523.84
2022-08-18T23:11:56.383Z,100523.03
2022-08-18T23:14:24.422Z,100520.34
2022-08-18T23:16:52.634Z,100520.66
2022-08-18T23:19:21.606Z,100524.13
2022-08-18T23:21:49.350Z,100523.94
2022-08-18T23:24:17.665Z,100527.25
2022-08-18T23:26:45.869Z,100529.56
2022-08-18T23:29:14.521Z,100531.88
2022-08-18T23:31:44.972Z,100526.00
2022-08-18T23:34:15.436Z,100520.06
2022-08-18T23:36:46.912Z,100521.25
2022-08-18T23:39:14.606Z,100518.69
2022-08-18T23:41:42.927Z,100512.81
2022-08-18T23:44:11.964Z,100520.50
2022-08-18T23:46:42.111Z,100516.13
2022-08-18T23:49:10.737Z,100520.13
2022-08-18T23:51:44.396Z,100522.78
2022-08-18T23:54:19.407Z,100523.81
2022-08-18T23:56:47.839Z,100525.78
2022-08-18T23:59:17.250Z,100523.09
